sensor_id;sensor_type;location;lat;lon;timestamp;P1;durP1;ratioP1;P2;durP2;ratioP2
38911;SDS011;28444;48.056;14.408;2023-03-05T00:01:33;50.75;;;21.77;;
38911;SDS011;28444;48.056;14.408;2023-03-05T00:04:00;55.03;;;22.63;;
38911;SDS011;28444;48.056;14.408;2023-03-05T00:06:28;47.05;;;21.83;;
38911;SDS011;28444;48.056;14.408;2023-03-05T00:08:56;52.72;;;21.65;;
38911;SDS011;28444;48.056;14.408;2023-03-05T00:11:24;47.97;;;20.08;;
38911;SDS011;28444;48.056;14.408;2023-03-05T00:13:55;40.67;;;19.42;;
38911;SDS011;28444;48.056;14.408;2023-03-05T00:16:22;42.42;;;19.92;;
38911;SDS011;28444;48.056;14.408;2023-03-05T00:18:52;41.20;;;19.15;;
38911;SDS011;28444;48.056;14.408;2023-03-05T00:21:24;45.33;;;20.02;;
38911;SDS011;28444;48.056;14.408;2023-03-05T00:23:55;50.92;;;21.35;;
38911;SDS011;28444;48.056;14.408;2023-03-05T00:26:24;41.15;;;19.35;;
38911;SDS011;28444;48.056;14.408;2023-03-05T00:28:53;38.83;;;19.00;;
38911;SDS011;28444;48.056;14.408;2023-03-05T00:31:22;40.35;;;20.80;;
38911;SDS011;28444;48.056;14.408;2023-03-05T00:33:52;44.20;;;18.52;;
38911;SDS011;28444;48.056;14.408;2023-03-05T00:36:20;39.65;;;19.58;;
38911;SDS011;28444;48.056;14.408;2023-03-05T00:38:47;41.97;;;20.10;;
38911;SDS011;28444;48.056;14.408;2023-03-05T00:41:13;41.95;;;20.50;;
38911;SDS011;28444;48.056;14.408;2023-03-05T00:43:40;44.25;;;19.60;;
38911;SDS011;28444;48.056;14.408;2023-03-05T00:46:07;41.90;;;19.15;;
38911;SDS011;28444;48.056;14.408;2023-03-05T00:48:34;50.30;;;19.58;;
38911;SDS011;28444;48.056;14.408;2023-03-05T00:51:01;42.88;;;19.27;;
38911;SDS011;28444;48.056;14.408;2023-03-05T00:53:28;46.65;;;20.85;;
38911;SDS011;28444;48.056;14.408;2023-03-05T00:55:55;43.47;;;20.35;;
38911;SDS011;28444;48.056;14.408;2023-03-05T00:58:22;40.35;;;19.70;;
38911;SDS011;28444;48.056;14.408;2023-03-05T01:00:48;51.30;;;20.58;;
38911;SDS011;28444;48.056;14.408;2023-03-05T01:03:19;46.67;;;21.05;;
38911;SDS011;28444;48.056;14.408;2023-03-05T01:05:45;45.35;;;21.85;;
38911;SDS011;28444;48.056;14.408;2023-03-05T01:08:12;41.67;;;19.33;;
38911;SDS011;28444;48.056;14.408;2023-03-05T01:10:39;44.88;;;20.88;;
38911;SDS011;28444;48.056;14.408;2023-03-05T01:13:05;44.13;;;19.30;;
38911;SDS011;28444;48.056;14.408;2023-03-05T01:15:32;46.15;;;20.13;;
38911;SDS011;28444;48.056;14.408;2023-03-05T01:17:59;48.45;;;20.60;;
38911;SDS011;28444;48.056;14.408;2023-03-05T01:20:26;45.13;;;20.13;;
38911;SDS011;28444;48.056;14.408;2023-03-05T01:22:52;40.42;;;18.33;;
38911;SDS011;28444;48.056;14.408;2023-03-05T01:25:19;47.05;;;21.17;;
38911;SDS011;28444;48.056;14.408;2023-03-05T01:27:46;47.15;;;21.20;;
38911;SDS011;28444;48.056;14.408;2023-03-05T01:30:13;41.72;;;19.92;;
38911;SDS011;28444;48.056;14.408;2023-03-05T01:32:41;45.47;;;20.42;;
38911;SDS011;28444;48.056;14.408;2023-03-05T01:35:09;46.85;;;20.90;;
38911;SDS011;28444;48.056;14.408;2023-03-05T01:37:41;44.45;;;20.58;;
38911;SDS011;28444;48.056;14.408;2023-03-05T01:40:09;46.33;;;19.25;;
38911;SDS011;28444;48.056;14.408;2023-03-05T01:42:37;51.72;;;21.40;;
38911;SDS011;28444;48.056;14.408;2023-03-05T01:47:48;42.50;;;19.83;;
38911;SDS011;28444;48.056;14.408;2023-03-05T01:50:15;40.28;;;21.75;;
38911;SDS011;28444;48.056;14.408;2023-03-05T01:52:52;43.15;;;21.15;;
38911;SDS011;28444;48.056;14.408;2023-03-05T01:55:24;52.65;;;22.08;;
38911;SDS011;28444;48.056;14.408;2023-03-05T01:58:02;45.88;;;20.50;;
38911;SDS011;28444;48.056;14.408;2023-03-05T02:03:28;45.67;;;19.52;;
38911;SDS011;28444;48.056;14.408;2023-03-05T02:05:54;48.00;;;21.77;;
38911;SDS011;28444;48.056;14.408;2023-03-05T02:08:21;48.83;;;21.83;;
38911;SDS011;28444;48.056;14.408;2023-03-05T02:10:48;50.08;;;21.42;;
38911;SDS011;28444;48.056;14.408;2023-03-05T02:13:20;57.60;;;24.83;;
38911;SDS011;28444;48.056;14.408;2023-03-05T02:15:52;55.15;;;22.70;;
38911;SDS011;28444;48.056;14.408;2023-03-05T02:18:20;50.85;;;23.73;;
38911;SDS011;28444;48.056;14.408;2023-03-05T02:20:49;54.63;;;23.50;;
38911;SDS011;28444;48.056;14.408;2023-03-05T02:23:42;55.95;;;22.60;;
38911;SDS011;28444;48.056;14.408;2023-03-05T02:26:09;52.42;;;22.75;;
38911;SDS011;28444;48.056;14.408;2023-03-05T02:28:43;57.08;;;24.05;;
38911;SDS011;28444;48.056;14.408;2023-03-05T02:31:17;46.08;;;20.75;;
38911;SDS011;28444;48.056;14.408;2023-03-05T02:33:46;52.50;;;22.75;;
38911;SDS011;28444;48.056;14.408;2023-03-05T02:36:13;48.13;;;23.25;;
38911;SDS011;28444;48.056;14.408;2023-03-05T02:38:40;49.70;;;21.90;;
38911;SDS011;28444;48.056;14.408;2023-03-05T02:41:08;56.67;;;21.60;;
38911;SDS011;28444;48.056;14.408;2023-03-05T02:43:34;50.03;;;23.60;;
38911;SDS011;28444;48.056;14.408;2023-03-05T02:46:01;65.15;;;23.88;;
38911;SDS011;28444;48.056;14.408;2023-03-05T02:48:29;58.25;;;23.40;;
38911;SDS011;28444;48.056;14.408;2023-03-05T02:50:55;57.67;;;24.55;;
38911;SDS011;28444;48.056;14.408;2023-03-05T02:53:23;57.47;;;23.65;;
38911;SDS011;28444;48.056;14.408;2023-03-05T02:55:51;61.47;;;22.88;;
38911;SDS011;28444;48.056;14.408;2023-03-05T02:58:18;63.22;;;26.30;;
38911;SDS011;28444;48.056;14.408;2023-03-05T03:00:44;67.30;;;27.92;;
38911;SDS011;28444;48.056;14.408;2023-03-05T03:03:12;55.88;;;23.30;;
38911;SDS011;28444;48.056;14.408;2023-03-05T03:05:39;65.60;;;26.25;;
38911;SDS011;28444;48.056;14.408;2023-03-05T03:08:06;53.03;;;23.20;;
38911;SDS011;28444;48.056;14.408;2023-03-05T03:10:33;61.75;;;23.77;;
38911;SDS011;28444;48.056;14.408;2023-03-05T03:13:00;57.67;;;24.23;;
38911;SDS011;28444;48.056;14.408;2023-03-05T03:15:27;62.25;;;24.80;;
38911;SDS011;28444;48.056;14.408;2023-03-05T03:17:53;52.95;;;23.77;;
38911;SDS011;28444;48.056;14.408;2023-03-05T03:20:20;54.03;;;24.67;;
38911;SDS011;28444;48.056;14.408;2023-03-05T03:22:47;60.47;;;24.92;;
38911;SDS011;28444;48.056;14.408;2023-03-05T03:25:15;62.88;;;25.08;;
38911;SDS011;28444;48.056;14.408;2023-03-05T03:27:43;68.85;;;25.92;;
38911;SDS011;28444;48.056;14.408;2023-03-05T03:30:10;65.78;;;23.63;;
38911;SDS011;28444;48.056;14.408;2023-03-05T03:32:38;68.43;;;26.52;;
38911;SDS011;28444;48.056;14.408;2023-03-05T03:35:05;63.75;;;23.85;;
38911;SDS011;28444;48.056;14.408;2023-03-05T03:37:32;54.85;;;23.50;;
38911;SDS011;28444;48.056;14.408;2023-03-05T03:39:59;64.93;;;26.17;;
38911;SDS011;28444;48.056;14.408;2023-03-05T03:42:26;61.13;;;25.30;;
38911;SDS011;28444;48.056;14.408;2023-03-05T03:44:53;55.78;;;24.65;;
38911;SDS011;28444;48.056;14.408;2023-03-05T03:47:19;57.58;;;25.02;;
38911;SDS011;28444;48.056;14.408;2023-03-05T03:49:46;57.03;;;22.83;;
38911;SDS011;28444;48.056;14.408;2023-03-05T03:52:13;49.45;;;23.67;;
38911;SDS011;28444;48.056;14.408;2023-03-05T03:54:39;53.05;;;23.95;;
38911;SDS011;28444;48.056;14.408;2023-03-05T03:57:06;59.92;;;23.45;;
38911;SDS011;28444;48.056;14.408;2023-03-05T03:59:33;57.35;;;24.10;;
38911;SDS011;28444;48.056;14.408;2023-03-05T04:01:59;55.25;;;24.35;;
38911;SDS011;28444;48.056;14.408;2023-03-05T04:04:26;53.13;;;22.67;;
38911;SDS011;28444;48.056;14.408;2023-03-05T04:06:54;60.42;;;24.95;;
38911;SDS011;28444;48.056;14.408;2023-03-05T04:09:21;57.10;;;24.42;;
38911;SDS011;28444;48.056;14.408;2023-03-05T04:11:48;57.78;;;23.13;;
38911;SDS011;28444;48.056;14.408;2023-03-05T04:14:15;57.40;;;23.33;;
38911;SDS011;28444;48.056;14.408;2023-03-05T04:16:41;51.90;;;23.25;;
38911;SDS011;28444;48.056;14.408;2023-03-05T04:19:08;51.95;;;22.10;;
38911;SDS011;28444;48.056;14.408;2023-03-05T04:21:35;55.95;;;24.48;;
38911;SDS011;28444;48.056;14.408;2023-03-05T04:24:01;57.10;;;23.27;;
38911;SDS011;28444;48.056;14.408;2023-03-05T04:26:28;51.75;;;24.15;;
38911;SDS011;28444;48.056;14.408;2023-03-05T04:28:55;47.28;;;21.17;;
38911;SDS011;28444;48.056;14.408;2023-03-05T04:31:22;60.15;;;22.88;;
38911;SDS011;28444;48.056;14.408;2023-03-05T04:33:49;57.58;;;23.25;;
38911;SDS011;28444;48.056;14.408;2023-03-05T04:36:15;61.20;;;22.90;;
38911;SDS011;28444;48.056;14.408;2023-03-05T04:38:42;56.47;;;23.42;;
38911;SDS011;28444;48.056;14.408;2023-03-05T04:41:09;48.90;;;23.45;;
38911;SDS011;28444;48.056;14.408;2023-03-05T04:43:35;51.10;;;22.40;;
38911;SDS011;28444;48.056;14.408;2023-03-05T04:46:02;54.90;;;23.45;;
38911;SDS011;28444;48.056;14.408;2023-03-05T04:48:29;50.65;;;22.55;;
38911;SDS011;28444;48.056;14.408;2023-03-05T04:50:56;55.80;;;23.38;;
38911;SDS011;28444;48.056;14.408;2023-03-05T04:53:23;62.45;;;24.13;;
38911;SDS011;28444;48.056;14.408;2023-03-05T04:55:53;55.42;;;24.50;;
38911;SDS011;28444;48.056;14.408;2023-03-05T04:58:20;57.65;;;23.45;;
38911;SDS011;28444;48.056;14.408;2023-03-05T05:00:48;51.65;;;24.77;;
38911;SDS011;28444;48.056;14.408;2023-03-05T05:03:14;51.05;;;22.58;;
38911;SDS011;28444;48.056;14.408;2023-03-05T05:05:41;56.00;;;24.35;;
38911;SDS011;28444;48.056;14.408;2023-03-05T05:08:08;56.60;;;23.23;;
38911;SDS011;28444;48.056;14.408;2023-03-05T05:10:35;55.13;;;20.88;;
38911;SDS011;28444;48.056;14.408;2023-03-05T05:13:05;61.80;;;25.70;;
38911;SDS011;28444;48.056;14.408;2023-03-05T05:15:32;62.92;;;24.88;;
38911;SDS011;28444;48.056;14.408;2023-03-05T05:17:59;66.38;;;25.05;;
38911;SDS011;28444;48.056;14.408;2023-03-05T05:20:25;69.82;;;28.55;;
38911;SDS011;28444;48.056;14.408;2023-03-05T05:22:52;62.70;;;25.08;;
38911;SDS011;28444;48.056;14.408;2023-03-05T05:25:19;56.17;;;23.55;;
38911;SDS011;28444;48.056;14.408;2023-03-05T05:27:45;58.42;;;25.13;;
38911;SDS011;28444;48.056;14.408;2023-03-05T05:30:12;60.20;;;22.92;;
38911;SDS011;28444;48.056;14.408;2023-03-05T05:32:39;56.47;;;25.02;;
38911;SDS011;28444;48.056;14.408;2023-03-05T05:35:06;57.17;;;23.10;;
38911;SDS011;28444;48.056;14.408;2023-03-05T05:37:33;59.55;;;23.92;;
38911;SDS011;28444;48.056;14.408;2023-03-05T05:39:59;65.50;;;24.58;;
38911;SDS011;28444;48.056;14.408;2023-03-05T05:42:26;57.25;;;24.30;;
38911;SDS011;28444;48.056;14.408;2023-03-05T05:44:54;61.65;;;24.23;;
38911;SDS011;28444;48.056;14.408;2023-03-05T05:47:21;56.65;;;25.15;;
38911;SDS011;28444;48.056;14.408;2023-03-05T05:49:48;62.25;;;24.13;;
38911;SDS011;28444;48.056;14.408;2023-03-05T05:52:14;55.47;;;24.55;;
38911;SDS011;28444;48.056;14.408;2023-03-05T05:54:41;57.28;;;24.40;;
38911;SDS011;28444;48.056;14.408;2023-03-05T05:57:08;58.13;;;26.38;;
38911;SDS011;28444;48.056;14.408;2023-03-05T05:59:34;61.10;;;23.75;;
38911;SDS011;28444;48.056;14.408;2023-03-05T06:02:02;64.03;;;26.13;;
38911;SDS011;28444;48.056;14.408;2023-03-05T06:04:30;58.38;;;24.77;;
38911;SDS011;28444;48.056;14.408;2023-03-05T06:06:57;58.13;;;26.40;;
38911;SDS011;28444;48.056;14.408;2023-03-05T06:09:25;65.70;;;25.17;;
38911;SDS011;28444;48.056;14.408;2023-03-05T06:11:52;57.97;;;24.92;;
38911;SDS011;28444;48.056;14.408;2023-03-05T06:14:19;65.25;;;24.70;;
38911;SDS011;28444;48.056;14.408;2023-03-05T06:16:45;62.88;;;26.20;;
38911;SDS011;28444;48.056;14.408;2023-03-05T06:19:13;66.13;;;25.95;;
38911;SDS011;28444;48.056;14.408;2023-03-05T06:21:41;64.55;;;25.98;;
38911;SDS011;28444;48.056;14.408;2023-03-05T06:24:09;68.43;;;26.40;;
38911;SDS011;28444;48.056;14.408;2023-03-05T06:26:36;59.28;;;24.42;;
38911;SDS011;28444;48.056;14.408;2023-03-05T06:29:03;60.88;;;25.73;;
38911;SDS011;28444;48.056;14.408;2023-03-05T06:31:30;51.35;;;25.63;;
38911;SDS011;28444;48.056;14.408;2023-03-05T06:33:57;61.83;;;23.30;;
38911;SDS011;28444;48.056;14.408;2023-03-05T06:36:28;69.15;;;26.75;;
38911;SDS011;28444;48.056;14.408;2023-03-05T06:38:55;56.17;;;22.38;;
38911;SDS011;28444;48.056;14.408;2023-03-05T06:41:24;71.43;;;27.50;;
38911;SDS011;28444;48.056;14.408;2023-03-05T06:43:53;56.15;;;26.23;;
38911;SDS011;28444;48.056;14.408;2023-03-05T06:46:22;52.50;;;24.58;;
38911;SDS011;28444;48.056;14.408;2023-03-05T06:48:56;58.42;;;24.15;;
38911;SDS011;28444;48.056;14.408;2023-03-05T06:51:29;66.90;;;25.55;;
38911;SDS011;28444;48.056;14.408;2023-03-05T06:56:28;58.45;;;23.05;;
38911;SDS011;28444;48.056;14.408;2023-03-05T06:58:54;62.75;;;24.40;;
38911;SDS011;28444;48.056;14.408;2023-03-05T07:01:21;67.00;;;25.48;;
38911;SDS011;28444;48.056;14.408;2023-03-05T07:03:49;53.75;;;25.13;;
38911;SDS011;28444;48.056;14.408;2023-03-05T07:06:18;57.50;;;24.48;;
38911;SDS011;28444;48.056;14.408;2023-03-05T07:08:45;54.20;;;24.63;;
38911;SDS011;28444;48.056;14.408;2023-03-05T07:11:22;68.60;;;28.50;;
38911;SDS011;28444;48.056;14.408;2023-03-05T07:13:49;57.58;;;24.67;;
38911;SDS011;28444;48.056;14.408;2023-03-05T07:16:18;52.83;;;22.80;;
38911;SDS011;28444;48.056;14.408;2023-03-05T07:18:47;55.88;;;22.27;;
38911;SDS011;28444;48.056;14.408;2023-03-05T07:21:14;63.65;;;23.33;;
38911;SDS011;28444;48.056;14.408;2023-03-05T07:23:44;58.53;;;22.95;;
38911;SDS011;28444;48.056;14.408;2023-03-05T07:26:11;64.10;;;24.80;;
38911;SDS011;28444;48.056;14.408;2023-03-05T07:28:38;53.50;;;24.30;;
38911;SDS011;28444;48.056;14.408;2023-03-05T07:31:06;55.03;;;22.70;;
38911;SDS011;28444;48.056;14.408;2023-03-05T07:33:37;59.53;;;24.90;;
38911;SDS011;28444;48.056;14.408;2023-03-05T07:36:06;62.33;;;25.08;;
38911;SDS011;28444;48.056;14.408;2023-03-05T07:38:34;66.85;;;25.48;;
38911;SDS011;28444;48.056;14.408;2023-03-05T07:41:01;64.55;;;24.00;;
38911;SDS011;28444;48.056;14.408;2023-03-05T07:43:29;71.32;;;28.65;;
38911;SDS011;28444;48.056;14.408;2023-03-05T07:45:56;55.80;;;24.52;;
38911;SDS011;28444;48.056;14.408;2023-03-05T07:48:23;54.10;;;23.00;;
38911;SDS011;28444;48.056;14.408;2023-03-05T07:50:50;66.93;;;25.38;;
38911;SDS011;28444;48.056;14.408;2023-03-05T07:53:26;67.47;;;22.75;;
38911;SDS011;28444;48.056;14.408;2023-03-05T07:55:52;59.45;;;23.10;;
38911;SDS011;28444;48.056;14.408;2023-03-05T07:58:19;58.50;;;25.00;;
38911;SDS011;28444;48.056;14.408;2023-03-05T08:00:46;68.28;;;31.35;;
38911;SDS011;28444;48.056;14.408;2023-03-05T08:03:12;60.85;;;24.60;;
38911;SDS011;28444;48.056;14.408;2023-03-05T08:05:39;60.85;;;23.63;;
38911;SDS011;28444;48.056;14.408;2023-03-05T08:08:06;65.43;;;25.23;;
38911;SDS011;28444;48.056;14.408;2023-03-05T08:10:34;55.58;;;22.40;;
38911;SDS011;28444;48.056;14.408;2023-03-05T08:13:01;47.60;;;21.75;;
38911;SDS011;28444;48.056;14.408;2023-03-05T08:15:28;62.78;;;23.30;;
38911;SDS011;28444;48.056;14.408;2023-03-05T08:17:57;60.33;;;23.48;;
38911;SDS011;28444;48.056;14.408;2023-03-05T08:20:24;60.42;;;24.65;;
38911;SDS011;28444;48.056;14.408;2023-03-05T08:22:51;55.20;;;23.27;;
38911;SDS011;28444;48.056;14.408;2023-03-05T08:25:18;58.50;;;23.40;;
38911;SDS011;28444;48.056;14.408;2023-03-05T08:27:45;54.70;;;22.02;;
38911;SDS011;28444;48.056;14.408;2023-03-05T08:30:15;49.03;;;20.00;;
38911;SDS011;28444;48.056;14.408;2023-03-05T08:32:44;47.47;;;20.65;;
38911;SDS011;28444;48.056;14.408;2023-03-05T08:35:11;69.15;;;25.50;;
38911;SDS011;28444;48.056;14.408;2023-03-05T08:37:38;54.00;;;23.65;;
38911;SDS011;28444;48.056;14.408;2023-03-05T08:40:05;53.90;;;23.48;;
38911;SDS011;28444;48.056;14.408;2023-03-05T08:42:32;53.33;;;24.15;;
38911;SDS011;28444;48.056;14.408;2023-03-05T08:44:59;54.35;;;22.73;;
38911;SDS011;28444;48.056;14.408;2023-03-05T08:47:25;58.60;;;24.65;;
38911;SDS011;28444;48.056;14.408;2023-03-05T08:49:53;54.45;;;22.00;;
38911;SDS011;28444;48.056;14.408;2023-03-05T08:52:21;62.60;;;23.08;;
38911;SDS011;28444;48.056;14.408;2023-03-05T08:54:48;96.57;;;24.33;;
38911;SDS011;28444;48.056;14.408;2023-03-05T08:57:15;65.50;;;23.65;;
38911;SDS011;28444;48.056;14.408;2023-03-05T08:59:42;55.70;;;21.63;;
38911;SDS011;28444;48.056;14.408;2023-03-05T09:02:11;58.50;;;23.25;;
38911;SDS011;28444;48.056;14.408;2023-03-05T09:04:39;51.17;;;23.20;;
38911;SDS011;28444;48.056;14.408;2023-03-05T09:07:06;55.47;;;21.88;;
38911;SDS011;28444;48.056;14.408;2023-03-05T09:09:33;51.47;;;24.80;;
38911;SDS011;28444;48.056;14.408;2023-03-05T09:12:00;50.13;;;21.92;;
38911;SDS011;28444;48.056;14.408;2023-03-05T09:14:27;48.42;;;22.08;;
38911;SDS011;28444;48.056;14.408;2023-03-05T09:16:55;59.63;;;23.58;;
38911;SDS011;28444;48.056;14.408;2023-03-05T09:19:22;56.45;;;23.80;;
38911;SDS011;28444;48.056;14.408;2023-03-05T09:21:50;54.70;;;22.80;;
38911;SDS011;28444;48.056;14.408;2023-03-05T09:24:16;55.83;;;21.20;;
38911;SDS011;28444;48.056;14.408;2023-03-05T09:26:43;52.78;;;24.83;;
38911;SDS011;28444;48.056;14.408;2023-03-05T09:29:10;49.47;;;22.67;;
38911;SDS011;28444;48.056;14.408;2023-03-05T09:31:37;47.65;;;20.60;;
38911;SDS011;28444;48.056;14.408;2023-03-05T09:34:04;58.70;;;24.70;;
38911;SDS011;28444;48.056;14.408;2023-03-05T09:36:32;52.15;;;21.95;;
38911;SDS011;28444;48.056;14.408;2023-03-05T09:38:59;56.15;;;21.42;;
38911;SDS011;28444;48.056;14.408;2023-03-05T09:41:44;54.65;;;21.77;;
38911;SDS011;28444;48.056;14.408;2023-03-05T09:47:53;69.03;;;24.02;;
38911;SDS011;28444;48.056;14.408;2023-03-05T09:50:40;50.00;;;22.73;;
38911;SDS011;28444;48.056;14.408;2023-03-05T09:53:20;55.88;;;21.70;;
38911;SDS011;28444;48.056;14.408;2023-03-05T09:56:15;56.70;;;22.65;;
38911;SDS011;28444;48.056;14.408;2023-03-05T09:58:53;45.72;;;23.10;;
38911;SDS011;28444;48.056;14.408;2023-03-05T10:01:26;50.17;;;21.73;;
38911;SDS011;28444;48.056;14.408;2023-03-05T10:04:05;56.47;;;23.08;;
38911;SDS011;28444;48.056;14.408;2023-03-05T10:06:49;48.45;;;22.17;;
38911;SDS011;28444;48.056;14.408;2023-03-05T10:09:35;49.60;;;21.55;;
38911;SDS011;28444;48.056;14.408;2023-03-05T10:15:44;47.67;;;22.55;;
38911;SDS011;28444;48.056;14.408;2023-03-05T10:21:02;46.05;;;17.70;;
38911;SDS011;28444;48.056;14.408;2023-03-05T10:23:58;44.95;;;18.40;;
38911;SDS011;28444;48.056;14.408;2023-03-05T10:26:36;51.92;;;20.70;;
38911;SDS011;28444;48.056;14.408;2023-03-05T10:35:52;39.05;;;17.60;;
38911;SDS011;28444;48.056;14.408;2023-03-05T10:40:20;40.35;;;18.55;;
38911;SDS011;28444;48.056;14.408;2023-03-05T10:42:06;43.80;;;17.67;;
38911;SDS011;28444;48.056;14.408;2023-03-05T10:44:59;33.25;;;15.60;;
38911;SDS011;28444;48.056;14.408;2023-03-05T10:50:14;37.72;;;16.20;;
38911;SDS011;28444;48.056;14.408;2023-03-05T10:56:01;32.25;;;16.08;;
38911;SDS011;28444;48.056;14.408;2023-03-05T10:58:29;37.28;;;16.05;;
38911;SDS011;28444;48.056;14.408;2023-03-05T11:01:18;34.60;;;16.58;;
38911;SDS011;28444;48.056;14.408;2023-03-05T11:03:54;29.63;;;15.55;;
38911;SDS011;28444;48.056;14.408;2023-03-05T11:06:38;25.38;;;12.60;;
38911;SDS011;28444;48.056;14.408;2023-03-05T11:11:41;36.20;;;15.27;;
38911;SDS011;28444;48.056;14.408;2023-03-05T11:14:21;30.15;;;14.60;;
38911;SDS011;28444;48.056;14.408;2023-03-05T11:16:56;35.25;;;15.65;;
38911;SDS011;28444;48.056;14.408;2023-03-05T11:19:27;29.67;;;14.45;;
38911;SDS011;28444;48.056;14.408;2023-03-05T11:27:53;31.33;;;14.10;;
38911;SDS011;28444;48.056;14.408;2023-03-05T11:30:25;38.03;;;15.88;;
38911;SDS011;28444;48.056;14.408;2023-03-05T11:33:14;40.65;;;14.85;;
38911;SDS011;28444;48.056;14.408;2023-03-05T11:35:45;28.33;;;15.00;;
38911;SDS011;28444;48.056;14.408;2023-03-05T11:40:59;36.60;;;16.75;;
38911;SDS011;28444;48.056;14.408;2023-03-05T11:43:28;34.40;;;15.25;;
38911;SDS011;28444;48.056;14.408;2023-03-05T11:46:01;30.55;;;15.18;;
38911;SDS011;28444;48.056;14.408;2023-03-05T11:48:33;35.03;;;14.93;;
38911;SDS011;28444;48.056;14.408;2023-03-05T11:51:06;61.40;;;16.67;;
38911;SDS011;28444;48.056;14.408;2023-03-05T11:53:39;27.67;;;13.65;;
38911;SDS011;28444;48.056;14.408;2023-03-05T11:56:20;28.00;;;13.10;;
38911;SDS011;28444;48.056;14.408;2023-03-05T11:59:02;34.10;;;12.90;;
38911;SDS011;28444;48.056;14.408;2023-03-05T12:01:39;27.65;;;12.98;;
38911;SDS011;28444;48.056;14.408;2023-03-05T12:04:10;25.30;;;12.00;;
38911;SDS011;28444;48.056;14.408;2023-03-05T12:06:38;28.50;;;12.45;;
38911;SDS011;28444;48.056;14.408;2023-03-05T12:09:11;26.38;;;12.40;;
38911;SDS011;28444;48.056;14.408;2023-03-05T12:11:43;28.38;;;12.40;;
38911;SDS011;28444;48.056;14.408;2023-03-05T12:14:18;27.05;;;12.43;;
38911;SDS011;28444;48.056;14.408;2023-03-05T12:17:16;25.83;;;11.75;;
38911;SDS011;28444;48.056;14.408;2023-03-05T12:19:51;24.65;;;11.23;;
38911;SDS011;28444;48.056;14.408;2023-03-05T12:22:25;26.23;;;12.95;;
38911;SDS011;28444;48.056;14.408;2023-03-05T12:27:53;22.48;;;11.68;;
38911;SDS011;28444;48.056;14.408;2023-03-05T12:34:16;25.27;;;11.27;;
38911;SDS011;28444;48.056;14.408;2023-03-05T12:45:42;22.77;;;12.20;;
38911;SDS011;28444;48.056;14.408;2023-03-05T12:51:05;27.48;;;11.20;;
38911;SDS011;28444;48.056;14.408;2023-03-05T12:53:31;23.70;;;11.02;;
38911;SDS011;28444;48.056;14.408;2023-03-05T12:56:02;22.70;;;12.27;;
38911;SDS011;28444;48.056;14.408;2023-03-05T12:58:51;18.00;;;10.00;;
38911;SDS011;28444;48.056;14.408;2023-03-05T13:01:39;16.30;;;9.30;;
38911;SDS011;28444;48.056;14.408;2023-03-05T13:04:15;18.95;;;8.25;;
38911;SDS011;28444;48.056;14.408;2023-03-05T13:06:47;17.35;;;8.32;;
38911;SDS011;28444;48.056;14.408;2023-03-05T13:09:24;19.15;;;8.57;;
38911;SDS011;28444;48.056;14.408;2023-03-05T13:11:53;17.80;;;8.65;;
38911;SDS011;28444;48.056;14.408;2023-03-05T13:15:05;15.90;;;8.80;;
38911;SDS011;28444;48.056;14.408;2023-03-05T13:20:23;15.50;;;7.63;;
38911;SDS011;28444;48.056;14.408;2023-03-05T13:23:19;15.02;;;7.93;;
38911;SDS011;28444;48.056;14.408;2023-03-05T13:26:01;15.45;;;7.53;;
38911;SDS011;28444;48.056;14.408;2023-03-05T13:32:00;27.77;;;12.30;;
38911;SDS011;28444;48.056;14.408;2023-03-05T13:34:30;18.70;;;9.05;;
38911;SDS011;28444;48.056;14.408;2023-03-05T13:37:17;20.58;;;9.20;;
38911;SDS011;28444;48.056;14.408;2023-03-05T13:40:02;17.25;;;8.57;;
38911;SDS011;28444;48.056;14.408;2023-03-05T13:42:40;19.48;;;8.43;;
38911;SDS011;28444;48.056;14.408;2023-03-05T13:45:26;22.05;;;8.88;;
38911;SDS011;28444;48.056;14.408;2023-03-05T13:47:59;15.73;;;8.25;;
38911;SDS011;28444;48.056;14.408;2023-03-05T13:53:20;16.85;;;8.00;;
38911;SDS011;28444;48.056;14.408;2023-03-05T13:56:04;17.98;;;9.55;;
38911;SDS011;28444;48.056;14.408;2023-03-05T14:01:47;18.80;;;8.95;;
38911;SDS011;28444;48.056;14.408;2023-03-05T14:07:00;23.92;;;8.48;;
38911;SDS011;28444;48.056;14.408;2023-03-05T14:09:40;19.17;;;8.90;;
38911;SDS011;28444;48.056;14.408;2023-03-05T14:20:39;14.80;;;7.82;;
38911;SDS011;28444;48.056;14.408;2023-03-05T14:23:29;23.15;;;9.32;;
38911;SDS011;28444;48.056;14.408;2023-03-05T14:29:13;21.95;;;9.32;;
38911;SDS011;28444;48.056;14.408;2023-03-05T14:31:46;16.02;;;8.40;;
38911;SDS011;28444;48.056;14.408;2023-03-05T14:34:18;25.17;;;9.75;;
38911;SDS011;28444;48.056;14.408;2023-03-05T14:37:01;19.48;;;9.18;;
38911;SDS011;28444;48.056;14.408;2023-03-05T14:39:39;22.45;;;9.77;;
38911;SDS011;28444;48.056;14.408;2023-03-05T14:42:35;20.48;;;9.82;;
38911;SDS011;28444;48.056;14.408;2023-03-05T14:45:11;24.27;;;9.80;;
38911;SDS011;28444;48.056;14.408;2023-03-05T14:47:40;18.50;;;10.45;;
38911;SDS011;28444;48.056;14.408;2023-03-05T14:50:07;20.85;;;9.88;;
38911;SDS011;28444;48.056;14.408;2023-03-05T14:52:40;18.27;;;9.63;;
38911;SDS011;28444;48.056;14.408;2023-03-05T14:55:09;19.65;;;9.48;;
38911;SDS011;28444;48.056;14.408;2023-03-05T14:57:40;21.90;;;10.27;;
38911;SDS011;28444;48.056;14.408;2023-03-05T15:00:14;21.00;;;10.13;;
38911;SDS011;28444;48.056;14.408;2023-03-05T15:02:42;21.10;;;10.95;;
38911;SDS011;28444;48.056;14.408;2023-03-05T15:05:09;25.20;;;12.77;;
38911;SDS011;28444;48.056;14.408;2023-03-05T15:07:36;21.30;;;10.18;;
38911;SDS011;28444;48.056;14.408;2023-03-05T15:10:03;22.25;;;11.30;;
38911;SDS011;28444;48.056;14.408;2023-03-05T15:12:33;21.08;;;9.88;;
38911;SDS011;28444;48.056;14.408;2023-03-05T15:15:00;20.92;;;10.00;;
38911;SDS011;28444;48.056;14.408;2023-03-05T15:17:30;24.08;;;12.07;;
38911;SDS011;28444;48.056;14.408;2023-03-05T15:19:59;25.50;;;11.70;;
38911;SDS011;28444;48.056;14.408;2023-03-05T15:22:26;25.00;;;10.65;;
38911;SDS011;28444;48.056;14.408;2023-03-05T15:24:53;22.60;;;10.27;;
38911;SDS011;28444;48.056;14.408;2023-03-05T15:27:20;27.20;;;10.40;;
38911;SDS011;28444;48.056;14.408;2023-03-05T15:29:46;21.52;;;10.02;;
38911;SDS011;28444;48.056;14.408;2023-03-05T15:32:13;18.20;;;9.88;;
38911;SDS011;28444;48.056;14.408;2023-03-05T15:34:40;20.13;;;10.00;;
38911;SDS011;28444;48.056;14.408;2023-03-05T15:37:06;22.02;;;10.75;;
38911;SDS011;28444;48.056;14.408;2023-03-05T15:39:33;23.88;;;11.95;;
38911;SDS011;28444;48.056;14.408;2023-03-05T15:42:00;25.08;;;10.75;;
38911;SDS011;28444;48.056;14.408;2023-03-05T15:44:26;23.40;;;9.45;;
38911;SDS011;28444;48.056;14.408;2023-03-05T15:46:53;19.45;;;11.00;;
38911;SDS011;28444;48.056;14.408;2023-03-05T15:49:22;20.65;;;10.10;;
38911;SDS011;28444;48.056;14.408;2023-03-05T15:51:49;22.95;;;11.00;;
38911;SDS011;28444;48.056;14.408;2023-03-05T15:54:16;19.15;;;10.32;;
38911;SDS011;28444;48.056;14.408;2023-03-05T15:56:44;20.35;;;9.00;;